Terminal Aerodrome Forecast
Issued by NWS Topeka, KS

Home | Current Version | Previous Version | Graphics & Text | Print | Product List | Glossary On
Versions: 1 2 3 4 5 6 7 8 9 10 11 12 13 14
000
FTUS43 KTOP 201700
TAFTOP
TAF
KTOP 201722Z 2018/2118 19013G20KT P6SM FEW060
     FM210100 18009KT P6SM SCT250
     FM210600 19008KT P6SM SCT250 WS018/20038KT
     FM211400 20014KT P6SM SKC=

USA.gov is the U.S. government's official web portal to all federal, state and local government web resources and services.